sensor_id;sensor_type;location;lat;lon;timestamp;temperature;humidity
27633;DHT22;15046;50.930;13.334;2023-04-25T00:01:25;8.20;99.90
27633;DHT22;15046;50.930;13.334;2023-04-25T00:03:52;8.10;99.90
27633;DHT22;15046;50.930;13.334;2023-04-25T00:06:17;8.10;99.90
27633;DHT22;15046;50.930;13.334;2023-04-25T00:08:44;8.00;99.90
27633;DHT22;15046;50.930;13.334;2023-04-25T00:11:10;8.00;99.90
27633;DHT22;15046;50.930;13.334;2023-04-25T00:13:35;8.00;99.90
27633;DHT22;15046;50.930;13.334;2023-04-25T00:16:01;7.90;99.90
27633;DHT22;15046;50.930;13.334;2023-04-25T00:18:27;7.80;99.90
27633;DHT22;15046;50.930;13.334;2023-04-25T00:20:55;7.80;99.90
27633;DHT22;15046;50.930;13.334;2023-04-25T00:23:21;7.70;99.90
27633;DHT22;15046;50.930;13.334;2023-04-25T00:25:48;7.60;99.90
27633;DHT22;15046;50.930;13.334;2023-04-25T00:28:15;7.60;99.90
27633;DHT22;15046;50.930;13.334;2023-04-25T00:30:41;7.60;99.90
27633;DHT22;15046;50.930;13.334;2023-04-25T00:33:07;7.50;99.90
27633;DHT22;15046;50.930;13.334;2023-04-25T00:35:34;7.40;99.90
27633;DHT22;15046;50.930;13.334;2023-04-25T00:38:00;7.30;99.90
27633;DHT22;15046;50.930;13.334;2023-04-25T00:40:26;7.20;99.90
27633;DHT22;15046;50.930;13.334;2023-04-25T00:42:52;7.20;99.90
27633;DHT22;15046;50.930;13.334;2023-04-25T00:45:19;7.20;99.90
27633;DHT22;15046;50.930;13.334;2023-04-25T00:47:45;7.20;99.90
27633;DHT22;15046;50.930;13.334;2023-04-25T00:50:11;7.10;99.90
27633;DHT22;15046;50.930;13.334;2023-04-25T00:52:44;7.10;99.90
27633;DHT22;15046;50.930;13.334;2023-04-25T00:55:11;7.00;99.90
27633;DHT22;15046;50.930;13.334;2023-04-25T00:57:38;6.90;99.90
27633;DHT22;15046;50.930;13.334;2023-04-25T01:00:06;6.90;99.90
27633;DHT22;15046;50.930;13.334;2023-04-25T01:02:33;6.80;99.90
27633;DHT22;15046;50.930;13.334;2023-04-25T01:05:01;6.80;99.90
27633;DHT22;15046;50.930;13.334;2023-04-25T01:07:27;6.80;99.90
27633;DHT22;15046;50.930;13.334;2023-04-25T01:09:52;6.80;99.90
27633;DHT22;15046;50.930;13.334;2023-04-25T01:12:18;6.80;99.90
27633;DHT22;15046;50.930;13.334;2023-04-25T01:14:44;6.70;99.90
27633;DHT22;15046;50.930;13.334;2023-04-25T01:17:11;6.70;99.90
27633;DHT22;15046;50.930;13.334;2023-04-25T01:19:37;6.70;99.90
27633;DHT22;15046;50.930;13.334;2023-04-25T01:22:03;6.70;99.90
27633;DHT22;15046;50.930;13.334;2023-04-25T01:24:32;6.60;99.90
27633;DHT22;15046;50.930;13.334;2023-04-25T01:26:59;6.60;99.90
27633;DHT22;15046;50.930;13.334;2023-04-25T01:29:26;6.60;99.90
27633;DHT22;15046;50.930;13.334;2023-04-25T01:31:53;6.50;99.90
27633;DHT22;15046;50.930;13.334;2023-04-25T01:34:19;6.50;99.90
27633;DHT22;15046;50.930;13.334;2023-04-25T01:36:46;6.40;99.90
27633;DHT22;15046;50.930;13.334;2023-04-25T01:39:12;6.40;99.90
27633;DHT22;15046;50.930;13.334;2023-04-25T01:41:38;6.40;99.90
27633;DHT22;15046;50.930;13.334;2023-04-25T01:44:04;6.40;99.90
27633;DHT22;15046;50.930;13.334;2023-04-25T01:46:31;6.40;99.90
27633;DHT22;15046;50.930;13.334;2023-04-25T01:48:57;6.40;99.90
27633;DHT22;15046;50.930;13.334;2023-04-25T01:51:22;6.40;99.90
27633;DHT22;15046;50.930;13.334;2023-04-25T01:53:48;6.40;99.90
27633;DHT22;15046;50.930;13.334;2023-04-25T01:56:14;6.30;99.90
27633;DHT22;15046;50.930;13.334;2023-04-25T01:58:40;6.30;99.90
27633;DHT22;15046;50.930;13.334;2023-04-25T02:01:06;6.30;99.90
27633;DHT22;15046;50.930;13.334;2023-04-25T02:03:32;6.30;99.90
27633;DHT22;15046;50.930;13.334;2023-04-25T02:05:58;6.30;99.90
27633;DHT22;15046;50.930;13.334;2023-04-25T02:08:24;6.30;99.90
27633;DHT22;15046;50.930;13.334;2023-04-25T02:10:51;6.30;99.90
27633;DHT22;15046;50.930;13.334;2023-04-25T02:13:17;6.30;99.90
27633;DHT22;15046;50.930;13.334;2023-04-25T02:15:43;6.30;99.90
27633;DHT22;15046;50.930;13.334;2023-04-25T02:18:08;6.30;99.90
27633;DHT22;15046;50.930;13.334;2023-04-25T02:20:36;6.30;99.90
27633;DHT22;15046;50.930;13.334;2023-04-25T02:23:02;6.30;99.90
27633;DHT22;15046;50.930;13.334;2023-04-25T02:25:28;6.30;99.90
27633;DHT22;15046;50.930;13.334;2023-04-25T02:27:54;6.30;99.90
27633;DHT22;15046;50.930;13.334;2023-04-25T02:30:20;6.20;99.90
27633;DHT22;15046;50.930;13.334;2023-04-25T02:32:46;6.30;99.90
27633;DHT22;15046;50.930;13.334;2023-04-25T02:35:12;6.20;99.90
27633;DHT22;15046;50.930;13.334;2023-04-25T02:37:39;6.20;99.90
27633;DHT22;15046;50.930;13.334;2023-04-25T02:40:05;6.20;99.90
27633;DHT22;15046;50.930;13.334;2023-04-25T02:42:32;6.20;99.90
27633;DHT22;15046;50.930;13.334;2023-04-25T02:44:58;6.20;99.90
27633;DHT22;15046;50.930;13.334;2023-04-25T02:47:24;6.30;99.90
27633;DHT22;15046;50.930;13.334;2023-04-25T02:49:49;6.30;99.90
27633;DHT22;15046;50.930;13.334;2023-04-25T02:52:15;6.30;99.90
27633;DHT22;15046;50.930;13.334;2023-04-25T02:54:41;6.30;99.90
27633;DHT22;15046;50.930;13.334;2023-04-25T02:57:07;6.30;99.90
27633;DHT22;15046;50.930;13.334;2023-04-25T02:59:33;6.40;99.90
27633;DHT22;15046;50.930;13.334;2023-04-25T03:01:59;6.40;99.90
27633;DHT22;15046;50.930;13.334;2023-04-25T03:04:25;6.40;99.90
27633;DHT22;15046;50.930;13.334;2023-04-25T03:06:51;6.30;99.90
27633;DHT22;15046;50.930;13.334;2023-04-25T03:09:17;6.30;99.90
27633;DHT22;15046;50.930;13.334;2023-04-25T03:11:44;6.30;99.90
27633;DHT22;15046;50.930;13.334;2023-04-25T03:14:10;6.20;99.90
27633;DHT22;15046;50.930;13.334;2023-04-25T03:16:36;6.30;99.90
27633;DHT22;15046;50.930;13.334;2023-04-25T03:19:02;6.30;99.90
27633;DHT22;15046;50.930;13.334;2023-04-25T03:21:29;6.30;99.90
27633;DHT22;15046;50.930;13.334;2023-04-25T03:23:56;6.30;99.90
27633;DHT22;15046;50.930;13.334;2023-04-25T03:26:22;6.40;99.90
27633;DHT22;15046;50.930;13.334;2023-04-25T03:28:48;6.40;99.90
27633;DHT22;15046;50.930;13.334;2023-04-25T03:31:13;6.40;99.90
27633;DHT22;15046;50.930;13.334;2023-04-25T03:33:39;6.50;99.90
27633;DHT22;15046;50.930;13.334;2023-04-25T03:36:05;6.50;99.90
27633;DHT22;15046;50.930;13.334;2023-04-25T03:38:31;6.50;99.90
27633;DHT22;15046;50.930;13.334;2023-04-25T03:40:57;6.60;99.90
27633;DHT22;15046;50.930;13.334;2023-04-25T03:43:23;6.50;99.90
27633;DHT22;15046;50.930;13.334;2023-04-25T03:45:49;6.60;99.90
27633;DHT22;15046;50.930;13.334;2023-04-25T03:48:15;6.60;99.90
27633;DHT22;15046;50.930;13.334;2023-04-25T03:50:40;6.60;99.90
27633;DHT22;15046;50.930;13.334;2023-04-25T03:53:06;6.60;99.90
27633;DHT22;15046;50.930;13.334;2023-04-25T03:55:32;6.70;99.90
27633;DHT22;15046;50.930;13.334;2023-04-25T03:57:58;6.70;99.90
27633;DHT22;15046;50.930;13.334;2023-04-25T04:00:24;6.70;99.90
27633;DHT22;15046;50.930;13.334;2023-04-25T04:02:50;6.70;99.90
27633;DHT22;15046;50.930;13.334;2023-04-25T04:05:16;6.70;99.90
27633;DHT22;15046;50.930;13.334;2023-04-25T04:07:42;6.70;99.90
27633;DHT22;15046;50.930;13.334;2023-04-25T04:10:11;6.80;99.90
27633;DHT22;15046;50.930;13.334;2023-04-25T04:12:38;6.70;99.90
27633;DHT22;15046;50.930;13.334;2023-04-25T04:15:05;6.80;99.90
27633;DHT22;15046;50.930;13.334;2023-04-25T04:17:31;6.70;99.90
27633;DHT22;15046;50.930;13.334;2023-04-25T04:19:57;6.80;99.90
27633;DHT22;15046;50.930;13.334;2023-04-25T04:22:24;6.80;99.90
27633;DHT22;15046;50.930;13.334;2023-04-25T04:24:50;6.80;99.90
27633;DHT22;15046;50.930;13.334;2023-04-25T04:27:17;6.90;99.90
27633;DHT22;15046;50.930;13.334;2023-04-25T04:29:43;6.90;99.90
27633;DHT22;15046;50.930;13.334;2023-04-25T04:32:09;6.90;99.90
27633;DHT22;15046;50.930;13.334;2023-04-25T04:34:35;6.90;99.90
27633;DHT22;15046;50.930;13.334;2023-04-25T04:37:01;6.90;99.90
27633;DHT22;15046;50.930;13.334;2023-04-25T04:39:27;6.90;99.90
27633;DHT22;15046;50.930;13.334;2023-04-25T04:41:53;6.90;99.90
27633;DHT22;15046;50.930;13.334;2023-04-25T04:44:19;6.90;99.90
27633;DHT22;15046;50.930;13.334;2023-04-25T04:46:45;6.90;99.90
27633;DHT22;15046;50.930;13.334;2023-04-25T04:49:12;6.90;99.90
27633;DHT22;15046;50.930;13.334;2023-04-25T04:51:39;6.90;99.90
27633;DHT22;15046;50.930;13.334;2023-04-25T04:54:06;6.90;99.90
27633;DHT22;15046;50.930;13.334;2023-04-25T04:56:32;6.90;99.90
27633;DHT22;15046;50.930;13.334;2023-04-25T04:58:58;6.90;99.90
27633;DHT22;15046;50.930;13.334;2023-04-25T05:01:25;6.90;99.90
27633;DHT22;15046;50.930;13.334;2023-04-25T05:03:52;7.00;99.90
27633;DHT22;15046;50.930;13.334;2023-04-25T05:06:21;6.90;99.90
27633;DHT22;15046;50.930;13.334;2023-04-25T05:08:46;7.00;99.90
27633;DHT22;15046;50.930;13.334;2023-04-25T05:11:12;7.00;99.90
27633;DHT22;15046;50.930;13.334;2023-04-25T05:13:38;7.00;99.90
27633;DHT22;15046;50.930;13.334;2023-04-25T05:16:04;7.00;99.90
27633;DHT22;15046;50.930;13.334;2023-04-25T05:18:29;6.90;99.90
27633;DHT22;15046;50.930;13.334;2023-04-25T05:20:55;6.90;99.90
27633;DHT22;15046;50.930;13.334;2023-04-25T05:23:21;6.80;99.90
27633;DHT22;15046;50.930;13.334;2023-04-25T05:25:47;6.80;99.90
27633;DHT22;15046;50.930;13.334;2023-04-25T05:28:13;6.70;99.90
27633;DHT22;15046;50.930;13.334;2023-04-25T05:30:39;6.70;99.90
27633;DHT22;15046;50.930;13.334;2023-04-25T05:33:05;6.70;99.90
27633;DHT22;15046;50.930;13.334;2023-04-25T05:35:31;6.70;99.90
27633;DHT22;15046;50.930;13.334;2023-04-25T05:37:56;6.70;99.90
27633;DHT22;15046;50.930;13.334;2023-04-25T05:40:22;6.70;99.90
27633;DHT22;15046;50.930;13.334;2023-04-25T05:42:48;6.70;99.90
27633;DHT22;15046;50.930;13.334;2023-04-25T05:45:14;6.60;99.90
27633;DHT22;15046;50.930;13.334;2023-04-25T05:47:40;6.70;99.90
27633;DHT22;15046;50.930;13.334;2023-04-25T05:50:06;6.70;99.90
27633;DHT22;15046;50.930;13.334;2023-04-25T05:52:32;6.80;99.90
27633;DHT22;15046;50.930;13.334;2023-04-25T05:54:58;6.80;99.90
27633;DHT22;15046;50.930;13.334;2023-04-25T05:57:25;6.90;99.90
27633;DHT22;15046;50.930;13.334;2023-04-25T05:59:51;7.00;99.90
27633;DHT22;15046;50.930;13.334;2023-04-25T06:02:19;7.10;99.90
27633;DHT22;15046;50.930;13.334;2023-04-25T06:04:44;7.20;99.90
27633;DHT22;15046;50.930;13.334;2023-04-25T06:07:10;7.30;99.90
27633;DHT22;15046;50.930;13.334;2023-04-25T06:09:36;7.50;99.90
27633;DHT22;15046;50.930;13.334;2023-04-25T06:12:05;7.70;99.90
27633;DHT22;15046;50.930;13.334;2023-04-25T06:14:31;7.80;99.90
27633;DHT22;15046;50.930;13.334;2023-04-25T06:16:56;7.90;99.90
27633;DHT22;15046;50.930;13.334;2023-04-25T06:19:22;8.00;99.90
27633;DHT22;15046;50.930;13.334;2023-04-25T06:21:48;8.10;99.90
27633;DHT22;15046;50.930;13.334;2023-04-25T06:24:14;8.10;99.90
27633;DHT22;15046;50.930;13.334;2023-04-25T06:26:39;8.20;99.90
27633;DHT22;15046;50.930;13.334;2023-04-25T06:29:05;8.20;99.90
27633;DHT22;15046;50.930;13.334;2023-04-25T06:31:31;8.30;99.90
27633;DHT22;15046;50.930;13.334;2023-04-25T06:33:59;8.30;99.90
27633;DHT22;15046;50.930;13.334;2023-04-25T06:36:25;8.30;99.90
27633;DHT22;15046;50.930;13.334;2023-04-25T06:38:53;8.30;99.90
27633;DHT22;15046;50.930;13.334;2023-04-25T06:41:20;8.30;99.90
27633;DHT22;15046;50.930;13.334;2023-04-25T06:43:46;8.30;99.90
27633;DHT22;15046;50.930;13.334;2023-04-25T06:46:12;8.30;99.90
27633;DHT22;15046;50.930;13.334;2023-04-25T06:48:38;8.30;99.90
27633;DHT22;15046;50.930;13.334;2023-04-25T06:51:03;8.40;99.90
27633;DHT22;15046;50.930;13.334;2023-04-25T06:53:29;8.40;99.90
27633;DHT22;15046;50.930;13.334;2023-04-25T06:55:55;8.50;99.90
27633;DHT22;15046;50.930;13.334;2023-04-25T06:58:21;8.60;99.90
27633;DHT22;15046;50.930;13.334;2023-04-25T07:00:47;8.80;99.90
27633;DHT22;15046;50.930;13.334;2023-04-25T07:03:12;8.90;99.90
27633;DHT22;15046;50.930;13.334;2023-04-25T07:05:38;8.90;99.90
27633;DHT22;15046;50.930;13.334;2023-04-25T07:08:04;8.90;99.90
27633;DHT22;15046;50.930;13.334;2023-04-25T07:10:30;8.90;99.90
27633;DHT22;15046;50.930;13.334;2023-04-25T07:12:56;9.00;99.90
27633;DHT22;15046;50.930;13.334;2023-04-25T07:15:21;9.10;99.90
27633;DHT22;15046;50.930;13.334;2023-04-25T07:17:47;9.10;99.90
27633;DHT22;15046;50.930;13.334;2023-04-25T07:20:13;9.20;99.90
27633;DHT22;15046;50.930;13.334;2023-04-25T07:22:39;9.20;99.90
27633;DHT22;15046;50.930;13.334;2023-04-25T07:25:05;9.20;99.90
27633;DHT22;15046;50.930;13.334;2023-04-25T07:27:31;9.30;99.90
27633;DHT22;15046;50.930;13.334;2023-04-25T07:29:57;9.40;99.90
27633;DHT22;15046;50.930;13.334;2023-04-25T07:32:23;9.40;99.90
27633;DHT22;15046;50.930;13.334;2023-04-25T07:34:49;9.30;99.90
27633;DHT22;15046;50.930;13.334;2023-04-25T07:37:15;9.40;99.90
27633;DHT22;15046;50.930;13.334;2023-04-25T07:39:41;9.40;99.90
27633;DHT22;15046;50.930;13.334;2023-04-25T07:42:07;9.30;99.90
27633;DHT22;15046;50.930;13.334;2023-04-25T07:44:36;9.40;99.90
27633;DHT22;15046;50.930;13.334;2023-04-25T07:47:07;9.50;99.90
27633;DHT22;15046;50.930;13.334;2023-04-25T07:49:37;9.70;99.90
27633;DHT22;15046;50.930;13.334;2023-04-25T07:52:04;9.70;99.90
27633;DHT22;15046;50.930;13.334;2023-04-25T07:54:31;9.70;99.90
27633;DHT22;15046;50.930;13.334;2023-04-25T07:56:58;9.70;99.90
27633;DHT22;15046;50.930;13.334;2023-04-25T07:59:24;9.70;99.90
27633;DHT22;15046;50.930;13.334;2023-04-25T08:01:50;9.70;99.90
27633;DHT22;15046;50.930;13.334;2023-04-25T08:04:16;9.70;99.90
27633;DHT22;15046;50.930;13.334;2023-04-25T08:06:42;9.70;99.90
27633;DHT22;15046;50.930;13.334;2023-04-25T08:09:08;9.80;99.90
27633;DHT22;15046;50.930;13.334;2023-04-25T08:11:35;10.00;99.90
27633;DHT22;15046;50.930;13.334;2023-04-25T08:14:01;10.00;99.90
27633;DHT22;15046;50.930;13.334;2023-04-25T08:16:27;9.90;99.70
27633;DHT22;15046;50.930;13.334;2023-04-25T08:18:53;9.80;99.50
27633;DHT22;15046;50.930;13.334;2023-04-25T08:21:19;9.60;99.50
27633;DHT22;15046;50.930;13.334;2023-04-25T08:23:44;9.50;99.70
27633;DHT22;15046;50.930;13.334;2023-04-25T08:26:11;9.50;99.80
27633;DHT22;15046;50.930;13.334;2023-04-25T08:28:36;9.60;99.80
27633;DHT22;15046;50.930;13.334;2023-04-25T08:31:02;9.40;99.70
27633;DHT22;15046;50.930;13.334;2023-04-25T08:33:28;9.30;99.80
27633;DHT22;15046;50.930;13.334;2023-04-25T08:35:55;9.30;99.90
27633;DHT22;15046;50.930;13.334;2023-04-25T08:38:24;9.40;99.80
27633;DHT22;15046;50.930;13.334;2023-04-25T08:40:50;9.50;99.70
27633;DHT22;15046;50.930;13.334;2023-04-25T08:43:20;9.60;99.70
27633;DHT22;15046;50.930;13.334;2023-04-25T08:45:46;9.80;99.60
27633;DHT22;15046;50.930;13.334;2023-04-25T08:48:13;10.00;99.60
27633;DHT22;15046;50.930;13.334;2023-04-25T08:50:45;10.10;99.40
27633;DHT22;15046;50.930;13.334;2023-04-25T08:53:14;10.20;99.40
27633;DHT22;15046;50.930;13.334;2023-04-25T08:55:45;10.20;99.30
27633;DHT22;15046;50.930;13.334;2023-04-25T08:58:12;10.20;99.20
27633;DHT22;15046;50.930;13.334;2023-04-25T09:00:39;10.00;99.00
27633;DHT22;15046;50.930;13.334;2023-04-25T09:03:05;9.80;99.10
27633;DHT22;15046;50.930;13.334;2023-04-25T09:05:32;9.90;99.40
27633;DHT22;15046;50.930;13.334;2023-04-25T09:07:58;10.10;99.30
27633;DHT22;15046;50.930;13.334;2023-04-25T09:10:24;10.20;99.00
27633;DHT22;15046;50.930;13.334;2023-04-25T09:13:10;10.40;98.70
27633;DHT22;15046;50.930;13.334;2023-04-25T09:15:54;10.50;98.40
27633;DHT22;15046;50.930;13.334;2023-04-25T09:20:54;10.00;98.00
27633;DHT22;15046;50.930;13.334;2023-04-25T09:23:22;9.70;98.10
27633;DHT22;15046;50.930;13.334;2023-04-25T09:25:52;9.50;98.30
27633;DHT22;15046;50.930;13.334;2023-04-25T09:28:26;9.40;98.60
27633;DHT22;15046;50.930;13.334;2023-04-25T09:30:56;9.40;98.70
27633;DHT22;15046;50.930;13.334;2023-04-25T09:33:31;9.50;98.90
27633;DHT22;15046;50.930;13.334;2023-04-25T09:36:07;9.70;99.00
27633;DHT22;15046;50.930;13.334;2023-04-25T09:38:46;9.80;98.90
27633;DHT22;15046;50.930;13.334;2023-04-25T09:41:12;9.90;98.80
27633;DHT22;15046;50.930;13.334;2023-04-25T09:43:39;9.90;98.80
27633;DHT22;15046;50.930;13.334;2023-04-25T09:46:09;9.90;98.80
27633;DHT22;15046;50.930;13.334;2023-04-25T09:48:36;9.90;98.80
27633;DHT22;15046;50.930;13.334;2023-04-25T09:51:07;9.70;98.80
27633;DHT22;15046;50.930;13.334;2023-04-25T09:53:35;9.60;99.00
27633;DHT22;15046;50.930;13.334;2023-04-25T09:56:04;9.50;99.30
27633;DHT22;15046;50.930;13.334;2023-04-25T09:58:32;9.50;99.40
27633;DHT22;15046;50.930;13.334;2023-04-25T10:01:00;9.50;99.40
27633;DHT22;15046;50.930;13.334;2023-04-25T10:03:30;9.60;99.50
27633;DHT22;15046;50.930;13.334;2023-04-25T10:05:59;9.80;99.70
27633;DHT22;15046;50.930;13.334;2023-04-25T10:08:29;10.20;99.80
27633;DHT22;15046;50.930;13.334;2023-04-25T10:10:58;10.50;99.40
27633;DHT22;15046;50.930;13.334;2023-04-25T10:13:25;10.70;99.10
27633;DHT22;15046;50.930;13.334;2023-04-25T10:15:52;10.70;98.90
27633;DHT22;15046;50.930;13.334;2023-04-25T10:18:19;10.70;98.90
27633;DHT22;15046;50.930;13.334;2023-04-25T10:20:45;10.70;98.60
27633;DHT22;15046;50.930;13.334;2023-04-25T10:23:15;10.70;98.30
27633;DHT22;15046;50.930;13.334;2023-04-25T10:25:43;10.80;98.30
27633;DHT22;15046;50.930;13.334;2023-04-25T10:28:09;10.90;98.30
27633;DHT22;15046;50.930;13.334;2023-04-25T10:30:35;11.00;98.30
27633;DHT22;15046;50.930;13.334;2023-04-25T10:33:01;11.60;98.00
27633;DHT22;15046;50.930;13.334;2023-04-25T10:35:28;11.90;97.40
27633;DHT22;15046;50.930;13.334;2023-04-25T10:38:11;12.30;96.80
27633;DHT22;15046;50.930;13.334;2023-04-25T10:40:39;12.20;95.90
27633;DHT22;15046;50.930;13.334;2023-04-25T10:43:42;11.90;95.70
27633;DHT22;15046;50.930;13.334;2023-04-25T10:46:26;11.50;95.60
27633;DHT22;15046;50.930;13.334;2023-04-25T10:48:54;10.90;95.80
27633;DHT22;15046;50.930;13.334;2023-04-25T10:51:28;10.50;96.00
27633;DHT22;15046;50.930;13.334;2023-04-25T10:56:29;9.90;96.80
27633;DHT22;15046;50.930;13.334;2023-04-25T10:59:16;9.80;97.20
27633;DHT22;15046;50.930;13.334;2023-04-25T11:01:49;9.70;97.40
27633;DHT22;15046;50.930;13.334;2023-04-25T11:04:43;9.60;97.70
27633;DHT22;15046;50.930;13.334;2023-04-25T11:07:21;9.60;97.90
27633;DHT22;15046;50.930;13.334;2023-04-25T11:09:49;9.50;97.90
27633;DHT22;15046;50.930;13.334;2023-04-25T11:12:15;9.40;98.00
27633;DHT22;15046;50.930;13.334;2023-04-25T11:14:42;9.30;98.30
27633;DHT22;15046;50.930;13.334;2023-04-25T11:17:08;9.20;98.60
27633;DHT22;15046;50.930;13.334;2023-04-25T11:19:34;9.20;98.70
27633;DHT22;15046;50.930;13.334;2023-04-25T11:22:01;9.20;98.70
27633;DHT22;15046;50.930;13.334;2023-04-25T11:24:34;9.20;98.70
27633;DHT22;15046;50.930;13.334;2023-04-25T11:27:04;9.20;98.70
27633;DHT22;15046;50.930;13.334;2023-04-25T11:29:33;9.10;98.60
27633;DHT22;15046;50.930;13.334;2023-04-25T11:31:59;9.00;98.60
27633;DHT22;15046;50.930;13.334;2023-04-25T11:34:27;9.00;98.60
27633;DHT22;15046;50.930;13.334;2023-04-25T11:36:56;9.00;98.40
27633;DHT22;15046;50.930;13.334;2023-04-25T11:39:24;9.10;98.40
27633;DHT22;15046;50.930;13.334;2023-04-25T11:41:50;9.20;98.40
27633;DHT22;15046;50.930;13.334;2023-04-25T11:44:17;9.30;98.40
27633;DHT22;15046;50.930;13.334;2023-04-25T11:46:44;9.50;98.40
27633;DHT22;15046;50.930;13.334;2023-04-25T11:49:10;9.70;98.30
27633;DHT22;15046;50.930;13.334;2023-04-25T11:51:47;9.90;98.00
27633;DHT22;15046;50.930;13.334;2023-04-25T11:54:14;9.90;97.60
27633;DHT22;15046;50.930;13.334;2023-04-25T11:56:49;10.00;97.60
27633;DHT22;15046;50.930;13.334;2023-04-25T11:59:15;10.00;97.50
27633;DHT22;15046;50.930;13.334;2023-04-25T12:01:49;10.10;97.50
27633;DHT22;15046;50.930;13.334;2023-04-25T12:04:16;10.30;97.20
27633;DHT22;15046;50.930;13.334;2023-04-25T12:06:43;10.20;96.80
27633;DHT22;15046;50.930;13.334;2023-04-25T12:09:11;10.20;96.40
27633;DHT22;15046;50.930;13.334;2023-04-25T12:11:47;10.40;96.40
27633;DHT22;15046;50.930;13.334;2023-04-25T12:14:27;10.60;95.70
27633;DHT22;15046;50.930;13.334;2023-04-25T12:16:55;10.60;95.20
27633;DHT22;15046;50.930;13.334;2023-04-25T12:19:21;10.50;95.50
27633;DHT22;15046;50.930;13.334;2023-04-25T12:21:48;10.40;95.30
27633;DHT22;15046;50.930;13.334;2023-04-25T12:24:21;10.10;95.10
27633;DHT22;15046;50.930;13.334;2023-04-25T12:29:27;9.80;95.60
27633;DHT22;15046;50.930;13.334;2023-04-25T12:31:54;9.70;95.80
27633;DHT22;15046;50.930;13.334;2023-04-25T12:34:21;9.60;95.70
27633;DHT22;15046;50.930;13.334;2023-04-25T12:36:48;9.50;95.80
27633;DHT22;15046;50.930;13.334;2023-04-25T12:39:20;9.40;95.90
27633;DHT22;15046;50.930;13.334;2023-04-25T12:41:52;9.30;96.00
27633;DHT22;15046;50.930;13.334;2023-04-25T12:44:20;9.20;96.10
27633;DHT22;15046;50.930;13.334;2023-04-25T12:46:47;9.10;96.20
27633;DHT22;15046;50.930;13.334;2023-04-25T12:49:12;8.90;96.30
27633;DHT22;15046;50.930;13.334;2023-04-25T12:51:38;8.90;96.60
27633;DHT22;15046;50.930;13.334;2023-04-25T12:54:05;8.80;96.60
27633;DHT22;15046;50.930;13.334;2023-04-25T12:56:32;8.80;96.80
27633;DHT22;15046;50.930;13.334;2023-04-25T12:58:58;8.80;97.00
27633;DHT22;15046;50.930;13.334;2023-04-25T13:01:25;8.80;97.10
27633;DHT22;15046;50.930;13.334;2023-04-25T13:03:52;8.70;97.00
27633;DHT22;15046;50.930;13.334;2023-04-25T13:06:19;8.60;97.10
27633;DHT22;15046;50.930;13.334;2023-04-25T13:08:46;8.60;97.30
27633;DHT22;15046;50.930;13.334;2023-04-25T13:11:12;8.60;97.50
27633;DHT22;15046;50.930;13.334;2023-04-25T13:13:38;8.60;97.70
27633;DHT22;15046;50.930;13.334;2023-04-25T13:16:05;8.70;98.00
27633;DHT22;15046;50.930;13.334;2023-04-25T13:18:32;8.70;98.00
27633;DHT22;15046;50.930;13.334;2023-04-25T13:20:58;8.80;98.10
27633;DHT22;15046;50.930;13.334;2023-04-25T13:23:26;8.90;98.30
27633;DHT22;15046;50.930;13.334;2023-04-25T13:25:52;9.00;98.40
27633;DHT22;15046;50.930;13.334;2023-04-25T13:28:18;9.00;98.50
27633;DHT22;15046;50.930;13.334;2023-04-25T13:30:44;8.90;98.50
27633;DHT22;15046;50.930;13.334;2023-04-25T13:33:10;8.80;98.80
27633;DHT22;15046;50.930;13.334;2023-04-25T13:35:37;8.70;99.20
27633;DHT22;15046;50.930;13.334;2023-04-25T13:38:03;8.80;99.50
27633;DHT22;15046;50.930;13.334;2023-04-25T13:40:29;8.90;99.70
27633;DHT22;15046;50.930;13.334;2023-04-25T13:42:55;9.20;99.90
27633;DHT22;15046;50.930;13.334;2023-04-25T13:45:21;9.40;99.80
27633;DHT22;15046;50.930;13.334;2023-04-25T13:47:47;9.50;99.40
27633;DHT22;15046;50.930;13.334;2023-04-25T13:50:13;9.40;99.10
27633;DHT22;15046;50.930;13.334;2023-04-25T13:52:40;9.50;99.00
27633;DHT22;15046;50.930;13.334;2023-04-25T13:55:07;9.40;98.90
27633;DHT22;15046;50.930;13.334;2023-04-25T13:57:34;9.50;98.80
27633;DHT22;15046;50.930;13.334;2023-04-25T14:00:00;9.40;98.70
27633;DHT22;15046;50.930;13.334;2023-04-25T14:02:31;9.30;98.40
27633;DHT22;15046;50.930;13.334;2023-04-25T14:04:57;9.30;98.40
27633;DHT22;15046;50.930;13.334;2023-04-25T14:07:23;9.30;98.30
27633;DHT22;15046;50.930;13.334;2023-04-25T14:09:49;9.40;98.40
27633;DHT22;15046;50.930;13.334;2023-04-25T14:12:15;9.80;98.50
27633;DHT22;15046;50.930;13.334;2023-04-25T14:14:41;10.30;98.30
27633;DHT22;15046;50.930;13.334;2023-04-25T14:17:08;11.00;98.00
27633;DHT22;15046;50.930;13.334;2023-04-25T14:19:34;11.90;97.30
27633;DHT22;15046;50.930;13.334;2023-04-25T14:21:59;12.40;96.20
27633;DHT22;15046;50.930;13.334;2023-04-25T14:24:25;12.30;95.30
27633;DHT22;15046;50.930;13.334;2023-04-25T14:26:51;12.00;95.10
27633;DHT22;15046;50.930;13.334;2023-04-25T14:29:17;11.90;95.00
27633;DHT22;15046;50.930;13.334;2023-04-25T14:31:43;12.00;94.90
27633;DHT22;15046;50.930;13.334;2023-04-25T14:34:09;12.10;94.60
27633;DHT22;15046;50.930;13.334;2023-04-25T14:36:35;12.20;94.70
27633;DHT22;15046;50.930;13.334;2023-04-25T14:39:01;12.20;94.20
27633;DHT22;15046;50.930;13.334;2023-04-25T14:41:27;11.90;94.00
27633;DHT22;15046;50.930;13.334;2023-04-25T14:43:53;11.60;93.80
27633;DHT22;15046;50.930;13.334;2023-04-25T14:46:20;11.20;93.70
27633;DHT22;15046;50.930;13.334;2023-04-25T14:48:47;10.90;94.10
27633;DHT22;15046;50.930;13.334;2023-04-25T14:51:13;10.60;94.20
27633;DHT22;15046;50.930;13.334;2023-04-25T14:53:40;10.30;94.30
27633;DHT22;15046;50.930;13.334;2023-04-25T14:56:06;10.10;94.50
27633;DHT22;15046;50.930;13.334;2023-04-25T14:58:33;9.90;94.80
27633;DHT22;15046;50.930;13.334;2023-04-25T15:00:59;9.70;94.90
27633;DHT22;15046;50.930;13.334;2023-04-25T15:03:25;9.40;95.00
27633;DHT22;15046;50.930;13.334;2023-04-25T15:05:52;9.20;95.30
27633;DHT22;15046;50.930;13.334;2023-04-25T15:08:18;9.00;95.60
27633;DHT22;15046;50.930;13.334;2023-04-25T15:10:44;8.80;95.90
27633;DHT22;15046;50.930;13.334;2023-04-25T15:13:10;8.70;96.30
27633;DHT22;15046;50.930;13.334;2023-04-25T15:15:37;8.50;96.30
27633;DHT22;15046;50.930;13.334;2023-04-25T15:18:03;8.40;96.10
27633;DHT22;15046;50.930;13.334;2023-04-25T15:20:28;8.20;96.00
27633;DHT22;15046;50.930;13.334;2023-04-25T15:22:55;8.10;96.00
27633;DHT22;15046;50.930;13.334;2023-04-25T15:25:21;8.10;96.00
27633;DHT22;15046;50.930;13.334;2023-04-25T15:27:46;8.10;95.90
27633;DHT22;15046;50.930;13.334;2023-04-25T15:30:17;8.00;95.60
27633;DHT22;15046;50.930;13.334;2023-04-25T15:32:46;8.00;95.50
27633;DHT22;15046;50.930;13.334;2023-04-25T15:35:13;8.00;95.50